createdAt,value
2024-04-22T00:00:27.696Z,100.52
2024-04-22T00:01:27.859Z,102.15
2024-04-22T00:02:27.832Z,101.03
2024-04-22T00:03:27.892Z,102.12
2024-04-22T00:04:27.953Z,100.54
2024-04-22T00:05:27.924Z,102.60
2024-04-22T00:06:27.982Z,99.81
2024-04-22T00:07:28.081Z,100.67
2024-04-22T00:08:28.060Z,102.32
2024-04-22T00:09:28.185Z,99.94
2024-04-22T00:10:28.196Z,101.53
2024-04-22T00:11:28.252Z,100.12
2024-04-22T00:12:28.282Z,99.40
2024-04-22T00:13:28.345Z,99.51
2024-04-22T00:14:28.382Z,98.74
2024-04-22T00:15:28.440Z,100.11
2024-04-22T00:16:28.512Z,101.23
2024-04-22T00:17:28.596Z,100.61
2024-04-22T00:18:28.566Z,95.75
2024-04-22T00:19:28.665Z,98.19
2024-04-22T00:20:28.692Z,100.16
2024-04-22T00:21:28.727Z,98.67
2024-04-22T00:22:28.766Z,98.73
2024-04-22T00:23:28.826Z,98.29
2024-04-22T00:24:28.885Z,100.17
2024-04-22T00:25:28.931Z,101.15
2024-04-22T00:26:28.975Z,101.21
2024-04-22T00:27:29.238Z,100.48
2024-04-22T00:28:29.200Z,98.55
2024-04-22T00:29:29.224Z,98.09
2024-04-22T00:30:29.222Z,99.38
2024-04-22T00:31:29.324Z,101.13
2024-04-22T00:32:29.370Z,101.47
2024-04-22T00:33:29.459Z,101.17
2024-04-22T00:34:29.420Z,100.88
2024-04-22T00:35:29.462Z,102.46
2024-04-22T00:36:29.494Z,100.14
2024-04-22T00:37:29.562Z,99.72
2024-04-22T00:38:29.585Z,101.18
2024-04-22T00:39:29.603Z,99.57
2024-04-22T00:40:29.665Z,101.44
2024-04-22T00:41:29.710Z,98.85
2024-04-22T00:42:29.751Z,99.57
2024-04-22T00:43:29.851Z,99.40
2024-04-22T00:44:29.881Z,99.05
2024-04-22T00:45:29.918Z,100.56
2024-04-22T00:46:29.983Z,98.08
2024-04-22T00:47:30.098Z,99.28
2024-04-22T00:48:30.054Z,98.63
2024-04-22T00:49:30.135Z,99.25
2024-04-22T00:50:30.155Z,98.60
2024-04-22T00:51:30.205Z,100.09
2024-04-22T00:52:30.304Z,98.67
2024-04-22T00:53:30.299Z,97.69
2024-04-22T00:54:30.340Z,98.12
2024-04-22T00:55:30.470Z,97.07
2024-04-22T00:56:30.456Z,98.49
2024-04-22T00:57:30.591Z,100.47
2024-04-22T00:58:30.642Z,96.09
2024-04-22T00:59:30.619Z,100.95
2024-04-22T01:00:30.708Z,100.07
2024-04-22T01:01:30.790Z,98.73
2024-04-22T01:02:30.809Z,96.21
2024-04-22T01:03:30.867Z,98.12
2024-04-22T01:04:31.060Z,99.22
2024-04-22T01:05:30.995Z,97.74
2024-04-22T01:06:31.033Z,97.85
2024-04-22T01:07:31.196Z,97.64
2024-04-22T01:08:31.155Z,98.19
2024-04-22T01:09:31.191Z,96.87
2024-04-22T01:10:31.292Z,97.10
2024-04-22T01:11:31.352Z,99.40
2024-04-22T01:12:31.348Z,98.09
2024-04-22T01:13:31.490Z,98.24
2024-04-22T01:14:31.465Z,98.19
2024-04-22T01:15:31.532Z,98.25
2024-04-22T01:16:31.668Z,100.61
2024-04-22T01:17:31.822Z,100.02
2024-04-22T01:18:31.717Z,100.38
2024-04-22T01:19:31.826Z,95.81
2024-04-22T01:20:31.827Z,98.56
2024-04-22T01:21:31.853Z,97.50
2024-04-22T01:22:31.907Z,98.51
2024-04-22T01:23:31.960Z,96.31
2024-04-22T01:24:32.007Z,97.73
2024-04-22T01:25:32.089Z,95.74
2024-04-22T01:26:32.091Z,95.42
2024-04-22T01:27:32.140Z,94.25
2024-04-22T01:28:32.217Z,95.00
2024-04-22T01:29:32.251Z,92.96
2024-04-22T01:30:32.341Z,94.35
2024-04-22T01:31:32.401Z,94.05
2024-04-22T01:32:32.550Z,93.32
2024-04-22T01:33:32.527Z,94.62
2024-04-22T01:34:32.624Z,94.26
2024-04-22T01:35:32.624Z,90.31
2024-04-22T01:36:32.660Z,92.54
2024-04-22T01:37:32.800Z,90.59
2024-04-22T01:38:32.778Z,92.49
2024-04-22T01:39:32.843Z,90.84
2024-04-22T01:40:32.911Z,92.22
2024-04-22T01:41:32.967Z,89.71
2024-04-22T01:42:33.031Z,89.12
2024-04-22T01:43:33.097Z,90.17
2024-04-22T01:44:33.118Z,92.48
2024-04-22T01:45:33.183Z,90.95
2024-04-22T01:46:33.323Z,91.83
2024-04-22T01:47:33.338Z,92.02
2024-04-22T01:48:33.386Z,88.27
2024-04-22T01:49:33.432Z,91.91
2024-04-22T01:50:33.458Z,90.51
2024-04-22T01:51:33.553Z,88.94
2024-04-22T01:52:33.582Z,88.69
2024-04-22T01:53:33.650Z,88.17
2024-04-22T01:54:33.699Z,87.09
2024-04-22T01:55:33.830Z,86.52
2024-04-22T01:56:33.814Z,87.01
2024-04-22T01:57:33.869Z,88.71
2024-04-22T01:58:33.942Z,87.88
2024-04-22T01:59:33.964Z,88.41
2024-04-22T02:00:34.102Z,86.77
2024-04-22T02:01:34.091Z,86.30
2024-04-22T02:02:34.167Z,87.07
2024-04-22T02:03:34.216Z,87.96
2024-04-22T02:04:34.330Z,87.87
2024-04-22T02:05:34.298Z,88.74
2024-04-22T02:06:34.340Z,87.36
2024-04-22T02:07:34.439Z,87.91
2024-04-22T02:08:34.474Z,87.00
2024-04-22T02:09:34.566Z,86.74
2024-04-22T02:10:34.616Z,86.76
2024-04-22T02:11:34.795Z,88.70
2024-04-22T02:12:34.800Z,90.23
2024-04-22T02:13:34.784Z,89.26
2024-04-22T02:14:34.787Z,86.04
2024-04-22T02:15:34.968Z,88.22
2024-04-22T02:16:34.973Z,86.23
2024-04-22T02:17:35.193Z,86.92
2024-04-22T02:18:35.029Z,88.99
2024-04-22T02:19:35.168Z,89.84
2024-04-22T02:20:35.158Z,91.31
2024-04-22T02:21:35.218Z,88.53
2024-04-22T02:22:35.281Z,90.95
2024-04-22T02:23:35.299Z,86.81
2024-04-22T02:24:35.370Z,87.12
2024-04-22T02:25:35.523Z,90.01
2024-04-22T02:26:35.550Z,91.22
2024-04-22T02:27:35.629Z,93.12
2024-04-22T02:28:35.673Z,89.93
2024-04-22T02:29:35.660Z,91.77
2024-04-22T02:30:35.714Z,90.72
2024-04-22T02:31:35.817Z,91.42
2024-04-22T02:32:35.903Z,91.39
2024-04-22T02:33:35.944Z,90.40
2024-04-22T02:34:36.058Z,92.46
2024-04-22T02:35:36.000Z,89.59
2024-04-22T02:36:36.059Z,93.05
2024-04-22T02:37:36.152Z,92.09
2024-04-22T02:38:36.168Z,92.92
2024-04-22T02:39:36.207Z,93.21
2024-04-22T02:40:36.375Z,93.69
2024-04-22T02:41:36.330Z,93.37
2024-04-22T02:42:36.371Z,92.77
2024-04-22T02:43:36.507Z,93.69
2024-04-22T02:44:36.512Z,91.50
2024-04-22T02:45:36.564Z,93.84
2024-04-22T02:46:36.737Z,95.29
2024-04-22T02:47:36.731Z,95.63
2024-04-22T02:48:36.738Z,94.00
2024-04-22T02:49:36.936Z,96.29
2024-04-22T02:50:36.841Z,95.45
2024-04-22T02:51:36.912Z,97.02
2024-04-22T02:52:37.017Z,95.29
2024-04-22T02:53:37.009Z,94.77
2024-04-22T02:54:37.047Z,94.70
2024-04-22T02:55:37.150Z,93.25
2024-04-22T02:56:37.185Z,92.94
2024-04-22T02:57:37.208Z,94.67
2024-04-22T02:58:38.335Z,93.23
2024-04-22T02:59:37.334Z,92.10
2024-04-22T03:00:37.389Z,92.01
2024-04-22T03:01:37.538Z,90.86
2024-04-22T03:02:37.523Z,91.19
2024-04-22T03:03:37.576Z,89.24
2024-04-22T03:04:37.671Z,88.78
2024-04-22T03:05:37.635Z,88.99
2024-04-22T03:06:37.720Z,87.54
2024-04-22T03:07:37.862Z,91.81
2024-04-22T03:08:37.819Z,90.14
2024-04-22T03:09:37.866Z,89.00
2024-04-22T03:10:37.908Z,87.40
2024-04-22T03:11:38.018Z,88.86
2024-04-22T03:12:38.049Z,89.61
2024-04-22T03:13:38.138Z,89.24
2024-04-22T03:14:38.162Z,87.30
2024-04-22T03:15:38.183Z,87.46
2024-04-22T03:16:38.493Z,88.53
2024-04-22T03:17:38.391Z,87.99
2024-04-22T03:18:38.389Z,89.53
2024-04-22T03:19:38.445Z,88.87
2024-04-22T03:20:38.521Z,89.81
2024-04-22T03:21:38.522Z,87.34
2024-04-22T03:22:38.635Z,88.94
2024-04-22T03:23:38.642Z,90.48
2024-04-22T03:24:38.687Z,89.45
2024-04-22T03:25:38.839Z,89.38
2024-04-22T03:26:38.837Z,88.83
2024-04-22T03:27:38.879Z,88.81
2024-04-22T03:28:38.987Z,91.49
2024-04-22T03:29:39.000Z,88.58
2024-04-22T03:30:39.079Z,87.53
2024-04-22T03:31:39.192Z,89.10
2024-04-22T03:32:39.257Z,88.77
2024-04-22T03:33:39.237Z,87.09
2024-04-22T03:34:39.368Z,87.56
2024-04-22T03:35:39.349Z,86.05
2024-04-22T03:36:39.415Z,86.79
2024-04-22T03:37:39.574Z,86.89
2024-04-22T03:38:39.526Z,84.53
2024-04-22T03:39:39.577Z,87.66
2024-04-22T03:40:39.858Z,84.92
2024-04-22T03:41:39.697Z,86.29
2024-04-22T03:42:39.726Z,83.24
2024-04-22T03:43:39.828Z,86.35
2024-04-22T03:44:39.883Z,83.61
2024-04-22T03:45:39.935Z,84.94
2024-04-22T03:46:40.003Z,84.98
2024-04-22T03:47:40.149Z,83.25
2024-04-22T03:48:40.068Z,80.49
2024-04-22T03:49:40.159Z,84.93
2024-04-22T03:50:40.187Z,80.23
2024-04-22T03:51:40.245Z,81.29
2024-04-22T03:52:40.351Z,82.16
2024-04-22T03:53:40.351Z,81.70
2024-04-22T03:54:40.411Z,83.53
2024-04-22T03:55:40.532Z,83.50
2024-04-22T03:56:40.531Z,83.93
2024-04-22T03:57:40.562Z,84.91
2024-04-22T03:58:40.686Z,86.50
2024-04-22T03:59:40.674Z,84.79
2024-04-22T04:00:40.743Z,85.52
2024-04-22T04:01:40.871Z,89.16
2024-04-22T04:02:40.831Z,87.85
2024-04-22T04:03:40.977Z,87.82
2024-04-22T04:04:41.093Z,88.05
2024-04-22T04:05:41.005Z,89.35
2024-04-22T04:06:41.058Z,87.91
2024-04-22T04:07:41.184Z,90.40
2024-04-22T04:08:41.170Z,89.25
2024-04-22T04:09:41.242Z,91.22
2024-04-22T04:10:41.310Z,92.27
2024-04-22T04:11:41.402Z,90.88
2024-04-22T04:12:41.366Z,93.32
2024-04-22T04:13:41.464Z,90.61
2024-04-22T04:14:41.510Z,93.96
2024-04-22T04:15:41.533Z,94.08
2024-04-22T04:16:41.662Z,91.45
2024-04-22T04:17:41.693Z,91.93
2024-04-22T04:18:41.724Z,92.55
2024-04-22T04:19:41.803Z,93.81
2024-04-22T04:20:41.798Z,94.29
2024-04-22T04:21:41.892Z,91.28
2024-04-22T04:22:42.014Z,94.90
2024-04-22T04:23:41.953Z,93.30
2024-04-22T04:24:42.000Z,93.24
2024-04-22T04:25:42.201Z,93.65
2024-04-22T04:26:42.145Z,91.04
2024-04-22T04:27:42.171Z,93.94
2024-04-22T04:28:42.954Z,92.27
2024-04-22T04:29:42.289Z,92.28
2024-04-22T04:30:42.358Z,92.38
2024-04-22T04:31:42.620Z,92.71
2024-04-22T04:32:49.938Z,50.00
2024-04-22T04:33:49.845Z,50.00
2024-04-22T04:34:49.844Z,50.00
2024-04-22T04:35:49.847Z,50.00
2024-04-22T04:36:49.838Z,50.00
2024-04-22T04:37:49.837Z,50.33
2024-04-22T04:38:49.947Z,52.30
2024-04-22T04:39:49.846Z,54.43
2024-04-22T04:40:49.859Z,51.11
2024-04-22T04:41:49.840Z,52.90
2024-04-22T04:42:49.851Z,51.96
2024-04-22T04:43:49.961Z,53.38
2024-04-22T04:44:49.853Z,51.08
2024-04-22T04:45:49.831Z,52.10
2024-04-22T04:46:49.890Z,52.31
2024-04-22T04:47:49.942Z,53.49
2024-04-22T04:48:51.327Z,51.85
2024-04-22T04:49:49.861Z,50.39
2024-04-22T04:50:49.858Z,49.10
2024-04-22T04:51:49.874Z,49.35
2024-04-22T04:52:49.852Z,49.93
2024-04-22T04:53:49.845Z,50.83
2024-04-22T04:54:52.745Z,50.20
2024-04-22T04:55:49.996Z,50.23
2024-04-22T04:56:49.893Z,50.30
2024-04-22T04:57:49.869Z,50.35
2024-04-22T04:58:49.937Z,49.67
2024-04-22T04:59:49.875Z,50.62
2024-04-22T05:00:49.956Z,52.59
2024-04-22T05:01:50.039Z,53.32
2024-04-22T05:02:49.927Z,52.55
2024-04-22T05:03:49.872Z,54.15
2024-04-22T05:04:49.914Z,55.26
2024-04-22T05:05:49.878Z,57.15
2024-04-22T05:06:49.908Z,57.15
2024-04-22T05:07:49.962Z,53.84
2024-04-22T05:08:49.873Z,53.88
2024-04-22T05:09:49.883Z,55.76
2024-04-22T05:10:49.981Z,52.85
2024-04-22T05:11:49.897Z,57.07
2024-04-22T05:12:50.983Z,54.56
2024-04-22T05:13:49.901Z,55.78
2024-04-22T05:14:50.468Z,53.80
2024-04-22T05:15:49.888Z,53.45
2024-04-22T05:16:49.920Z,52.74
2024-04-22T05:17:50.037Z,51.36
2024-04-22T05:18:50.080Z,53.41
2024-04-22T05:19:50.127Z,51.10
2024-04-22T05:20:50.103Z,50.80
2024-04-22T05:21:50.165Z,51.67
2024-04-22T05:22:50.285Z,52.87
2024-04-22T05:23:50.286Z,54.50
2024-04-22T05:24:50.351Z,53.83
2024-04-22T05:25:50.451Z,52.92
2024-04-22T05:26:50.512Z,53.20
2024-04-22T05:27:50.530Z,55.03
2024-04-22T05:28:50.643Z,52.51
2024-04-22T05:29:50.640Z,53.59
2024-04-22T05:30:50.696Z,53.48
2024-04-22T05:31:50.849Z,52.64
2024-04-22T05:32:50.858Z,53.40
2024-04-22T05:33:50.868Z,51.45
2024-04-22T05:34:50.953Z,54.52
2024-04-22T05:35:50.999Z,53.69
2024-04-22T05:36:51.046Z,53.26
2024-04-22T05:37:51.132Z,54.83
2024-04-22T05:38:51.192Z,52.84
2024-04-22T05:39:51.243Z,54.10
2024-04-22T05:40:51.346Z,55.14
2024-04-22T05:41:51.372Z,56.92
2024-04-22T05:42:51.416Z,56.40
2024-04-22T05:43:51.475Z,57.46
2024-04-22T05:44:51.510Z,57.11
2024-04-22T05:45:51.583Z,56.28
2024-04-22T05:46:51.664Z,60.99
2024-04-22T05:47:51.728Z,60.61
2024-04-22T05:48:51.743Z,62.41
2024-04-22T05:49:51.833Z,62.01
2024-04-22T05:50:51.903Z,66.43
2024-04-22T05:51:51.975Z,67.33
2024-04-22T05:52:52.078Z,69.86
2024-04-22T05:53:51.987Z,71.46
2024-04-22T05:54:52.026Z,77.13
2024-04-22T05:55:52.132Z,80.09
2024-04-22T05:56:52.148Z,86.59
2024-04-22T05:57:52.141Z,86.63
2024-04-22T05:58:52.278Z,86.58
2024-04-22T05:59:52.324Z,88.07
2024-04-22T06:00:52.214Z,90.14
2024-04-22T06:01:52.267Z,90.49
2024-04-22T06:02:52.324Z,87.02
2024-04-22T06:03:52.372Z,81.53
2024-04-22T06:04:52.434Z,75.55
2024-04-22T06:05:52.474Z,65.66
2024-04-22T06:06:52.501Z,52.29
2024-04-22T06:07:52.578Z,50.28
2024-04-22T06:08:52.657Z,50.94
2024-04-22T06:09:52.724Z,50.00
2024-04-22T06:10:52.803Z,56.08
2024-04-22T06:12:02.544Z,65.26
2024-04-22T06:12:53.801Z,65.44
2024-04-22T06:13:52.853Z,66.19
2024-04-22T06:14:52.817Z,66.71
2024-04-22T06:15:52.829Z,68.35
2024-04-22T06:16:53.118Z,71.17
2024-04-22T06:17:52.868Z,70.02
2024-04-22T06:18:52.841Z,81.62
2024-04-22T06:19:52.933Z,81.86
2024-04-22T06:20:52.833Z,83.50
2024-04-22T06:21:52.823Z,87.36
2024-04-22T06:22:52.926Z,93.82
2024-04-22T06:23:52.850Z,96.81
2024-04-22T06:24:52.816Z,104.12
2024-04-22T06:25:52.916Z,107.28
2024-04-22T06:26:52.811Z,120.29
2024-04-22T06:27:52.839Z,122.92
2024-04-22T06:28:52.909Z,134.08
2024-04-22T06:29:52.807Z,137.50
2024-04-22T06:30:52.856Z,145.90
2024-04-22T06:31:52.969Z,156.28
2024-04-22T06:32:52.954Z,166.47
2024-04-22T06:33:53.113Z,175.51
2024-04-22T06:34:53.021Z,182.73
2024-04-22T06:35:53.041Z,192.41
2024-04-22T06:36:53.070Z,200.00
2024-04-22T06:37:53.213Z,199.77
2024-04-22T06:38:53.241Z,200.00
2024-04-22T06:39:53.275Z,199.64
2024-04-22T06:40:53.907Z,200.00
2024-04-22T06:41:53.419Z,200.00
2024-04-22T06:42:53.511Z,199.88
2024-04-22T06:43:53.562Z,199.93
2024-04-22T06:44:53.845Z,200.00
2024-04-22T06:45:53.564Z,200.00
2024-04-22T06:46:53.675Z,200.00
2024-04-22T06:47:53.737Z,200.00
2024-04-22T06:48:53.677Z,200.00
2024-04-22T06:49:53.724Z,200.02
2024-04-22T06:50:53.751Z,200.00
2024-04-22T06:51:53.793Z,199.79
2024-04-22T06:52:53.869Z,200.00
2024-04-22T06:53:53.839Z,200.00
2024-04-22T06:54:53.896Z,200.00
2024-04-22T06:55:53.966Z,200.00
2024-04-22T06:56:53.977Z,200.00
2024-04-22T06:57:54.061Z,200.00
2024-04-22T06:58:54.108Z,198.74
2024-04-22T06:59:54.159Z,197.62
2024-04-22T07:00:54.241Z,198.55
2024-04-22T07:01:54.336Z,196.88
2024-04-22T07:02:54.441Z,197.47
2024-04-22T07:03:54.537Z,194.39
2024-04-22T07:04:54.541Z,193.88
2024-04-22T07:05:54.592Z,192.62
2024-04-22T07:06:54.666Z,191.78
2024-04-22T07:07:54.783Z,190.82
2024-04-22T07:08:54.781Z,192.02
2024-04-22T07:09:54.827Z,189.74
2024-04-22T07:10:54.816Z,189.37
2024-04-22T07:11:54.843Z,188.52
2024-04-22T07:12:54.857Z,188.40
2024-04-22T07:13:54.841Z,186.84
2024-04-22T07:14:54.857Z,183.48
2024-04-22T07:15:54.862Z,182.73
2024-04-22T07:16:55.043Z,183.46
2024-04-22T07:17:54.960Z,182.58
2024-04-22T07:18:54.859Z,181.47
2024-04-22T07:19:54.917Z,182.06
2024-04-22T07:20:54.898Z,180.08
2024-04-22T07:21:54.902Z,179.99
2024-04-22T07:22:54.907Z,178.74
2024-04-22T07:23:54.911Z,179.05
2024-04-22T07:25:01.886Z,177.51
2024-04-22T07:25:55.910Z,176.20
2024-04-22T07:26:54.913Z,176.07
2024-04-22T07:27:55.634Z,176.33
2024-04-22T07:28:54.971Z,174.21
2024-04-22T07:29:54.936Z,174.67
2024-04-22T07:30:54.924Z,174.70
2024-04-22T07:31:54.954Z,173.22
2024-04-22T07:32:55.130Z,172.18
2024-04-22T07:33:54.910Z,171.74
2024-04-22T07:34:54.907Z,172.29
2024-04-22T07:35:54.924Z,171.19
2024-04-22T07:36:54.932Z,170.72
2024-04-22T07:37:54.983Z,168.76
2024-04-22T07:38:54.932Z,168.08
2024-04-22T07:39:54.948Z,167.18
2024-04-22T07:40:55.013Z,166.84
2024-04-22T07:41:55.055Z,166.09
2024-04-22T07:42:54.962Z,167.18
2024-04-22T07:43:54.929Z,165.69
2024-04-22T07:44:54.943Z,165.98
2024-04-22T07:45:54.968Z,165.77
2024-04-22T07:46:55.119Z,166.77
2024-04-22T07:47:55.012Z,167.03
2024-04-22T07:48:54.971Z,165.80
2024-04-22T07:49:55.028Z,164.54
2024-04-22T07:50:54.962Z,164.34
2024-04-22T07:51:54.956Z,163.33
2024-04-22T07:52:54.978Z,162.61
2024-04-22T07:53:54.971Z,159.46
2024-04-22T07:54:54.998Z,154.50
2024-04-22T07:55:54.995Z,152.91
2024-04-22T07:56:54.956Z,149.94
2024-04-22T07:57:55.007Z,148.23
2024-04-22T07:58:54.971Z,145.71
2024-04-22T07:59:54.984Z,142.53
2024-04-22T08:00:55.001Z,142.07
2024-04-22T08:01:55.000Z,140.49
2024-04-22T08:02:55.062Z,140.17
2024-04-22T08:03:55.016Z,138.74
2024-04-22T08:04:55.076Z,137.89
2024-04-22T08:05:54.998Z,137.51
2024-04-22T08:06:54.987Z,137.05
2024-04-22T08:07:54.987Z,136.76
2024-04-22T08:08:54.993Z,135.84
2024-04-22T08:09:54.977Z,135.56
2024-04-22T08:10:55.030Z,134.96
2024-04-22T08:11:54.960Z,134.53
2024-04-22T08:12:54.999Z,135.21
2024-04-22T08:13:55.044Z,134.49
2024-04-22T08:14:54.971Z,135.55
2024-04-22T08:15:55.019Z,136.21
2024-04-22T08:16:55.177Z,135.06
2024-04-22T08:17:55.318Z,134.59
2024-04-22T08:18:55.118Z,134.55
2024-04-22T08:19:57.121Z,134.05
2024-04-22T08:20:55.160Z,133.30
2024-04-22T08:21:55.116Z,133.01
2024-04-22T08:22:55.172Z,131.10
2024-04-22T08:23:55.139Z,131.68
2024-04-22T08:24:55.109Z,130.40
2024-04-22T08:25:55.198Z,129.74
2024-04-22T08:26:55.122Z,129.35
2024-04-22T08:27:55.153Z,129.06
2024-04-22T08:28:57.929Z,127.71
2024-04-22T08:29:55.167Z,127.75
2024-04-22T08:30:55.144Z,127.78
2024-04-22T08:31:55.198Z,127.80
2024-04-22T08:32:55.188Z,127.50
2024-04-22T08:33:55.211Z,127.64
2024-04-22T08:34:55.194Z,126.43
2024-04-22T08:35:55.181Z,125.46
2024-04-22T08:36:55.166Z,124.73
2024-04-22T08:37:55.174Z,124.20
2024-04-22T08:38:55.280Z,124.64
2024-04-22T08:39:55.177Z,126.03
2024-04-22T08:40:55.241Z,126.20
2024-04-22T08:41:55.187Z,126.61
2024-04-22T08:42:55.214Z,127.01
2024-04-22T08:43:55.198Z,127.35
2024-04-22T08:44:55.187Z,127.30
2024-04-22T08:45:55.242Z,126.79
2024-04-22T08:46:55.215Z,126.04
2024-04-22T08:47:55.267Z,126.87
2024-04-22T08:48:55.235Z,126.86
2024-04-22T08:49:55.346Z,126.35
2024-04-22T08:50:55.381Z,126.11
2024-04-22T08:51:55.429Z,125.76
2024-04-22T08:52:56.807Z,127.45
2024-04-22T08:53:55.590Z,128.22
2024-04-22T08:54:55.683Z,127.83
2024-04-22T08:55:55.774Z,126.07
2024-04-22T08:56:55.799Z,125.02
2024-04-22T08:57:55.855Z,123.15
2024-04-22T08:58:55.962Z,121.22
2024-04-22T08:59:55.998Z,120.03
2024-04-22T09:00:56.077Z,118.14
2024-04-22T09:01:56.143Z,116.54
2024-04-22T09:02:56.237Z,115.06
2024-04-22T09:03:56.244Z,113.18
2024-04-22T09:04:56.315Z,111.62
2024-04-22T09:05:56.408Z,110.93
2024-04-22T09:06:56.318Z,109.36
2024-04-22T09:07:56.317Z,107.50
2024-04-22T09:08:56.219Z,105.39
2024-04-22T09:10:14.713Z,105.15
2024-04-22T09:12:08.511Z,105.10
2024-04-22T09:12:57.369Z,104.54
2024-04-22T09:13:56.451Z,103.15
2024-04-22T09:14:56.349Z,102.66
2024-04-22T09:15:56.398Z,100.36
2024-04-22T09:16:56.344Z,99.50
2024-04-22T09:17:56.350Z,99.18
2024-04-22T09:18:56.399Z,98.08
2024-04-22T09:19:56.554Z,96.46
2024-04-22T09:20:56.298Z,96.91
2024-04-22T09:21:56.275Z,96.67
2024-04-22T09:22:56.314Z,95.81
2024-04-22T09:23:56.299Z,96.95
2024-04-22T09:24:56.354Z,95.85
2024-04-22T09:25:56.315Z,94.79
2024-04-22T09:26:56.306Z,94.73
2024-04-22T09:27:56.346Z,93.06
2024-04-22T09:28:56.335Z,93.37
2024-04-22T09:29:56.350Z,93.12
2024-04-22T09:30:56.281Z,92.81
2024-04-22T09:31:56.402Z,91.86
2024-04-22T09:32:56.496Z,91.92
2024-04-22T09:33:56.431Z,91.39
2024-04-22T09:34:56.428Z,90.88
2024-04-22T09:35:56.399Z,90.70
2024-04-22T09:36:56.316Z,90.29
2024-04-22T09:37:56.455Z,90.61
2024-04-22T09:38:56.358Z,90.41
2024-04-22T09:39:56.481Z,88.29
2024-04-22T09:40:56.366Z,85.86
2024-04-22T09:41:56.325Z,86.36
2024-04-22T09:42:56.524Z,86.80
2024-04-22T09:44:00.863Z,87.33
2024-04-22T09:44:57.438Z,87.42
2024-04-22T09:45:56.339Z,87.95
2024-04-22T09:46:56.313Z,88.88
2024-04-22T09:47:56.649Z,91.43
2024-04-22T09:48:56.439Z,95.97
2024-04-22T09:49:56.620Z,98.30
2024-04-22T09:50:56.406Z,100.40
2024-04-22T09:51:56.325Z,102.61
2024-04-22T09:52:56.364Z,103.98
2024-04-22T09:53:56.331Z,107.23
2024-04-22T09:54:56.485Z,109.74
2024-04-22T09:55:56.467Z,113.03
2024-04-22T09:56:56.460Z,115.54
2024-04-22T09:57:56.413Z,117.84
2024-04-22T09:58:56.395Z,120.55
2024-04-22T09:59:56.357Z,122.96
2024-04-22T10:00:56.519Z,124.83
2024-04-22T10:01:58.345Z,127.10
2024-04-22T10:02:56.646Z,129.20
2024-04-22T10:03:56.567Z,130.55
2024-04-22T10:04:56.882Z,131.75
2024-04-22T10:05:57.833Z,132.62
2024-04-22T10:06:56.443Z,134.34
2024-04-22T10:07:56.587Z,133.66
2024-04-22T10:08:56.372Z,133.91
2024-04-22T10:09:56.409Z,136.70
2024-04-22T10:10:56.511Z,138.25
2024-04-22T10:11:56.504Z,139.55
2024-04-22T10:12:56.430Z,138.95
2024-04-22T10:13:56.398Z,141.14
2024-04-22T10:14:56.389Z,142.32
2024-04-22T10:15:56.386Z,144.40
2024-04-22T10:16:56.426Z,144.26
2024-04-22T10:17:56.590Z,145.83
2024-04-22T10:18:56.473Z,145.64
2024-04-22T10:19:56.429Z,149.74
2024-04-22T10:20:56.472Z,155.01
2024-04-22T10:21:56.399Z,154.45
2024-04-22T10:22:56.402Z,172.21
2024-04-22T10:23:56.406Z,237.67
2024-04-22T10:24:56.440Z,229.00
2024-04-22T10:25:56.421Z,201.64
2024-04-22T10:27:04.903Z,190.62
2024-04-22T10:27:57.445Z,183.72
2024-04-22T10:28:56.473Z,177.23
2024-04-22T10:29:56.403Z,173.63
2024-04-22T10:30:56.468Z,169.21
2024-04-22T10:31:56.465Z,167.40
2024-04-22T10:32:56.421Z,164.54
2024-04-22T10:33:56.562Z,162.67
2024-04-22T10:34:56.532Z,161.20
2024-04-22T10:35:56.457Z,161.37
2024-04-22T10:36:58.602Z,159.65
2024-04-22T10:37:56.610Z,159.00
2024-04-22T10:38:56.676Z,160.23
2024-04-22T10:39:56.688Z,158.00
2024-04-22T10:40:56.791Z,158.54
2024-04-22T10:41:56.857Z,157.93
2024-04-22T10:42:56.881Z,157.94
2024-04-22T10:43:56.976Z,157.09
2024-04-22T10:44:57.160Z,156.66
2024-04-22T10:45:57.060Z,156.38
2024-04-22T10:46:57.936Z,157.70
2024-04-22T10:48:07.816Z,160.15
2024-04-22T10:48:58.293Z,160.15
2024-04-22T10:49:57.227Z,160.48
2024-04-22T10:50:57.186Z,160.36
2024-04-22T10:51:57.201Z,160.20
2024-04-22T10:52:57.288Z,160.32
2024-04-22T10:53:57.268Z,161.23
2024-04-22T10:54:57.224Z,162.30
2024-04-22T10:55:57.237Z,160.80
2024-04-22T10:56:57.257Z,161.92
2024-04-22T10:57:57.352Z,161.46
2024-04-22T10:58:57.398Z,162.37
2024-04-22T10:59:57.452Z,161.94
2024-04-22T11:00:57.595Z,163.05
2024-04-22T11:01:57.739Z,163.58
2024-04-22T11:02:57.944Z,163.63
2024-04-22T11:03:57.690Z,163.33
2024-04-22T11:04:57.759Z,164.70
2024-04-22T11:05:57.805Z,164.56
2024-04-22T11:06:57.862Z,164.41
2024-04-22T11:07:57.914Z,162.93
2024-04-22T11:08:57.976Z,164.78
2024-04-22T11:09:58.003Z,164.85
2024-04-22T11:10:58.115Z,165.75
2024-04-22T11:11:58.206Z,166.14
2024-04-22T11:12:58.197Z,166.82
2024-04-22T11:13:58.267Z,168.18
2024-04-22T11:14:58.357Z,168.21
2024-04-22T11:15:58.383Z,166.89
2024-04-22T11:16:58.532Z,168.02
2024-04-22T11:17:58.501Z,168.48
2024-04-22T11:18:58.556Z,168.48
2024-04-22T11:19:58.653Z,169.22
2024-04-22T11:20:58.648Z,169.07
2024-04-22T11:21:58.734Z,168.38
2024-04-22T11:22:58.800Z,170.91
2024-04-22T11:23:58.822Z,171.48
2024-04-22T11:24:59.765Z,171.35
2024-04-22T11:25:58.977Z,171.88
2024-04-22T11:26:59.004Z,171.91
2024-04-22T11:27:59.076Z,171.68
2024-04-22T11:28:59.095Z,172.09
2024-04-22T11:29:59.162Z,172.01
2024-04-22T11:30:59.244Z,174.03
2024-04-22T11:31:59.281Z,174.89
2024-04-22T11:32:59.419Z,179.60
2024-04-22T11:33:59.406Z,181.89
2024-04-22T11:34:59.484Z,181.21
2024-04-22T11:35:59.501Z,179.70
2024-04-22T11:36:59.568Z,180.78
2024-04-22T11:37:59.655Z,181.93
2024-04-22T11:38:59.667Z,179.89
2024-04-22T11:39:59.732Z,180.07
2024-04-22T11:40:59.856Z,179.46
2024-04-22T11:41:59.837Z,179.33
2024-04-22T11:42:59.883Z,180.38
2024-04-22T11:43:59.935Z,179.18
2024-04-22T11:45:02.130Z,178.57
2024-04-22T11:46:00.024Z,179.25
2024-04-22T11:47:00.134Z,178.02
2024-04-22T11:48:00.135Z,178.48
2024-04-22T11:49:00.032Z,177.75
2024-04-22T11:50:00.048Z,177.30
2024-04-22T11:51:00.024Z,176.87
2024-04-22T11:52:00.053Z,176.39
2024-04-22T11:53:05.630Z,174.53
2024-04-22T11:54:01.052Z,174.54
2024-04-22T11:55:00.059Z,173.18
2024-04-22T11:56:00.086Z,172.87
2024-04-22T11:57:00.052Z,172.96
2024-04-22T11:58:00.149Z,172.26
2024-04-22T11:59:00.126Z,170.09
2024-04-22T12:00:00.128Z,171.33
2024-04-22T12:01:00.111Z,169.48
2024-04-22T12:02:00.209Z,166.07
2024-04-22T12:03:02.057Z,168.59
2024-04-22T12:04:00.333Z,169.11
2024-04-22T12:05:00.513Z,167.42
2024-04-22T12:06:00.432Z,166.05
2024-04-22T12:07:00.381Z,164.31
2024-04-22T12:08:00.435Z,164.92
2024-04-22T12:09:05.076Z,163.96
2024-04-22T12:10:01.367Z,163.96
2024-04-22T12:11:00.415Z,163.84
2024-04-22T12:12:00.355Z,161.94
2024-04-22T12:13:00.406Z,163.52
2024-04-22T12:14:00.343Z,162.73
2024-04-22T12:15:03.593Z,162.01
2024-04-22T12:16:01.344Z,161.83
2024-04-22T12:17:00.474Z,161.33
2024-04-22T12:18:00.410Z,159.85
2024-04-22T12:19:00.369Z,158.39
2024-04-22T12:20:00.352Z,158.95
2024-04-22T12:21:02.681Z,157.09
2024-04-22T12:22:00.360Z,157.14
2024-04-22T12:23:00.392Z,157.12
2024-04-22T12:24:00.385Z,156.57
2024-04-22T12:25:00.411Z,155.84
2024-04-22T12:26:00.452Z,155.91
2024-04-22T12:27:02.344Z,155.56
2024-04-22T12:28:09.746Z,155.57
2024-04-22T12:29:01.432Z,155.58
2024-04-22T12:30:00.412Z,155.11
2024-04-22T12:31:00.389Z,154.21
2024-04-22T12:32:00.379Z,153.52
2024-04-22T12:33:00.462Z,153.37
2024-04-22T12:34:06.908Z,151.78
2024-04-22T12:35:01.476Z,150.89
2024-04-22T12:36:00.432Z,148.32
2024-04-22T12:37:00.470Z,146.08
2024-04-22T12:38:01.473Z,144.30
2024-04-22T12:39:00.465Z,142.51
2024-04-22T12:40:00.486Z,140.30
2024-04-22T12:41:00.518Z,139.06
2024-04-22T12:42:00.398Z,137.45